sensor_id;sensor_type;location;lat;lon;timestamp;temperature;humidity
47532;DHT22;33273;52.254;7.988;2022-10-31T00:00:47;13.10;98.60
47532;DHT22;33273;52.254;7.988;2022-10-31T00:03:13;13.10;98.80
47532;DHT22;33273;52.254;7.988;2022-10-31T00:05:44;13.10;99.80
47532;DHT22;33273;52.254;7.988;2022-10-31T00:08:11;13.00;99.90
47532;DHT22;33273;52.254;7.988;2022-10-31T00:10:41;13.00;99.90
47532;DHT22;33273;52.254;7.988;2022-10-31T00:13:08;13.00;99.90
47532;DHT22;33273;52.254;7.988;2022-10-31T00:15:35;13.00;99.90
47532;DHT22;33273;52.254;7.988;2022-10-31T00:18:03;12.90;99.90
47532;DHT22;33273;52.254;7.988;2022-10-31T00:20:30;12.90;99.90
47532;DHT22;33273;52.254;7.988;2022-10-31T00:23:00;12.90;99.90
47532;DHT22;33273;52.254;7.988;2022-10-31T00:25:27;12.90;99.90
47532;DHT22;33273;52.254;7.988;2022-10-31T00:27:53;12.90;99.90
47532;DHT22;33273;52.254;7.988;2022-10-31T00:30:19;12.90;99.90
47532;DHT22;33273;52.254;7.988;2022-10-31T00:32:45;12.80;99.90
47532;DHT22;33273;52.254;7.988;2022-10-31T00:35:11;12.80;99.90
47532;DHT22;33273;52.254;7.988;2022-10-31T00:37:37;12.80;99.90
47532;DHT22;33273;52.254;7.988;2022-10-31T00:40:03;12.70;99.90
47532;DHT22;33273;52.254;7.988;2022-10-31T00:42:30;12.70;99.90
47532;DHT22;33273;52.254;7.988;2022-10-31T00:44:58;12.60;99.90
47532;DHT22;33273;52.254;7.988;2022-10-31T00:47:25;12.60;99.90
47532;DHT22;33273;52.254;7.988;2022-10-31T00:49:51;12.60;99.90
47532;DHT22;33273;52.254;7.988;2022-10-31T00:52:18;12.60;99.90
47532;DHT22;33273;52.254;7.988;2022-10-31T00:54:44;12.50;99.90
47532;DHT22;33273;52.254;7.988;2022-10-31T00:57:11;12.60;99.90
47532;DHT22;33273;52.254;7.988;2022-10-31T00:59:36;12.50;99.90
47532;DHT22;33273;52.254;7.988;2022-10-31T01:02:02;12.50;99.90
47532;DHT22;33273;52.254;7.988;2022-10-31T01:04:31;12.40;99.90
47532;DHT22;33273;52.254;7.988;2022-10-31T01:06:57;12.40;99.90
47532;DHT22;33273;52.254;7.988;2022-10-31T01:09:23;12.40;99.90
47532;DHT22;33273;52.254;7.988;2022-10-31T01:11:49;12.30;99.90
47532;DHT22;33273;52.254;7.988;2022-10-31T01:14:14;12.30;99.90
47532;DHT22;33273;52.254;7.988;2022-10-31T01:16:40;12.30;99.90
47532;DHT22;33273;52.254;7.988;2022-10-31T01:19:06;12.30;99.90
47532;DHT22;33273;52.254;7.988;2022-10-31T01:21:33;12.30;99.90
47532;DHT22;33273;52.254;7.988;2022-10-31T01:24:00;12.20;99.90
47532;DHT22;33273;52.254;7.988;2022-10-31T01:26:31;12.20;99.90
47532;DHT22;33273;52.254;7.988;2022-10-31T01:29:05;12.20;99.90
47532;DHT22;33273;52.254;7.988;2022-10-31T01:31:37;12.10;99.90
47532;DHT22;33273;52.254;7.988;2022-10-31T01:34:05;12.10;99.90
47532;DHT22;33273;52.254;7.988;2022-10-31T01:36:37;12.10;99.90
47532;DHT22;33273;52.254;7.988;2022-10-31T01:39:07;12.00;99.90
47532;DHT22;33273;52.254;7.988;2022-10-31T01:41:36;12.10;99.90
47532;DHT22;33273;52.254;7.988;2022-10-31T01:47:05;12.10;99.90
47532;DHT22;33273;52.254;7.988;2022-10-31T01:49:54;12.10;99.90
47532;DHT22;33273;52.254;7.988;2022-10-31T01:52:32;12.10;99.90
47532;DHT22;33273;52.254;7.988;2022-10-31T01:55:02;12.10;99.90
47532;DHT22;33273;52.254;7.988;2022-10-31T01:57:31;12.10;99.90
47532;DHT22;33273;52.254;7.988;2022-10-31T02:00:00;12.00;99.90
47532;DHT22;33273;52.254;7.988;2022-10-31T02:02:39;12.10;99.90
47532;DHT22;33273;52.254;7.988;2022-10-31T02:05:11;12.00;99.90
47532;DHT22;33273;52.254;7.988;2022-10-31T02:08:03;12.00;99.90
47532;DHT22;33273;52.254;7.988;2022-10-31T02:10:30;12.00;99.90
47532;DHT22;33273;52.254;7.988;2022-10-31T02:12:58;12.00;99.90
47532;DHT22;33273;52.254;7.988;2022-10-31T02:15:26;11.90;99.90
47532;DHT22;33273;52.254;7.988;2022-10-31T02:17:52;11.90;99.90
47532;DHT22;33273;52.254;7.988;2022-10-31T02:20:22;11.90;99.90
47532;DHT22;33273;52.254;7.988;2022-10-31T02:34:39;11.70;99.90
47532;DHT22;33273;52.254;7.988;2022-10-31T02:45:35;11.50;99.90
47532;DHT22;33273;52.254;7.988;2022-10-31T02:48:13;11.50;99.90
47532;DHT22;33273;52.254;7.988;2022-10-31T02:50:45;11.50;99.90
47532;DHT22;33273;52.254;7.988;2022-10-31T02:53:15;11.50;99.90
47532;DHT22;33273;52.254;7.988;2022-10-31T02:55:49;11.50;99.90
47532;DHT22;33273;52.254;7.988;2022-10-31T02:58:20;11.50;99.90
47532;DHT22;33273;52.254;7.988;2022-10-31T03:06:45;11.50;99.90
47532;DHT22;33273;52.254;7.988;2022-10-31T03:09:34;11.50;99.90
47532;DHT22;33273;52.254;7.988;2022-10-31T03:15:10;11.40;99.90
47532;DHT22;33273;52.254;7.988;2022-10-31T03:17:47;11.40;99.90
47532;DHT22;33273;52.254;7.988;2022-10-31T03:20:17;11.40;99.90
47532;DHT22;33273;52.254;7.988;2022-10-31T03:22:45;11.40;99.90
47532;DHT22;33273;52.254;7.988;2022-10-31T03:25:14;11.30;99.90
47532;DHT22;33273;52.254;7.988;2022-10-31T03:27:42;11.30;99.90
47532;DHT22;33273;52.254;7.988;2022-10-31T03:30:12;11.30;99.90
47532;DHT22;33273;52.254;7.988;2022-10-31T03:32:56;11.20;99.90
47532;DHT22;33273;52.254;7.988;2022-10-31T03:35:27;11.10;99.90
47532;DHT22;33273;52.254;7.988;2022-10-31T03:37:55;11.10;99.90
47532;DHT22;33273;52.254;7.988;2022-10-31T03:40:23;11.00;99.90
47532;DHT22;33273;52.254;7.988;2022-10-31T03:42:54;11.00;99.90
47532;DHT22;33273;52.254;7.988;2022-10-31T03:45:24;11.00;99.90
47532;DHT22;33273;52.254;7.988;2022-10-31T03:47:53;11.00;99.90
47532;DHT22;33273;52.254;7.988;2022-10-31T03:50:21;11.00;99.90
47532;DHT22;33273;52.254;7.988;2022-10-31T03:52:58;11.00;99.90
47532;DHT22;33273;52.254;7.988;2022-10-31T03:55:33;11.00;99.90
47532;DHT22;33273;52.254;7.988;2022-10-31T03:58:12;11.00;99.90
47532;DHT22;33273;52.254;7.988;2022-10-31T04:00:44;10.90;99.90
47532;DHT22;33273;52.254;7.988;2022-10-31T04:03:17;10.90;99.90
47532;DHT22;33273;52.254;7.988;2022-10-31T04:05:51;10.90;99.90
47532;DHT22;33273;52.254;7.988;2022-10-31T04:08:23;10.90;99.90
47532;DHT22;33273;52.254;7.988;2022-10-31T04:10:51;10.80;99.90
47532;DHT22;33273;52.254;7.988;2022-10-31T04:13:22;10.80;99.90
47532;DHT22;33273;52.254;7.988;2022-10-31T04:15:58;10.80;99.90
47532;DHT22;33273;52.254;7.988;2022-10-31T04:18:25;10.70;99.90
47532;DHT22;33273;52.254;7.988;2022-10-31T04:21:11;10.60;99.90
47532;DHT22;33273;52.254;7.988;2022-10-31T04:23:37;10.60;99.90
47532;DHT22;33273;52.254;7.988;2022-10-31T04:26:14;10.50;99.90
47532;DHT22;33273;52.254;7.988;2022-10-31T04:28:43;10.50;99.90
47532;DHT22;33273;52.254;7.988;2022-10-31T04:31:10;10.50;99.90
47532;DHT22;33273;52.254;7.988;2022-10-31T04:33:37;10.50;99.90
47532;DHT22;33273;52.254;7.988;2022-10-31T04:36:04;10.40;99.90
47532;DHT22;33273;52.254;7.988;2022-10-31T04:38:32;10.40;99.90
47532;DHT22;33273;52.254;7.988;2022-10-31T04:40:59;10.40;99.90
47532;DHT22;33273;52.254;7.988;2022-10-31T04:43:43;10.30;99.90
47532;DHT22;33273;52.254;7.988;2022-10-31T04:46:10;10.30;99.90
47532;DHT22;33273;52.254;7.988;2022-10-31T04:48:37;10.30;99.90
47532;DHT22;33273;52.254;7.988;2022-10-31T04:51:07;10.30;99.90
47532;DHT22;33273;52.254;7.988;2022-10-31T04:53:33;10.20;99.90
47532;DHT22;33273;52.254;7.988;2022-10-31T04:56:17;10.20;99.90
47532;DHT22;33273;52.254;7.988;2022-10-31T04:58:46;10.20;99.90
47532;DHT22;33273;52.254;7.988;2022-10-31T05:01:13;10.20;99.90
47532;DHT22;33273;52.254;7.988;2022-10-31T05:03:39;10.10;99.90
47532;DHT22;33273;52.254;7.988;2022-10-31T05:06:06;10.10;99.90
47532;DHT22;33273;52.254;7.988;2022-10-31T05:08:32;10.10;99.90
47532;DHT22;33273;52.254;7.988;2022-10-31T05:11:02;10.00;99.90
47532;DHT22;33273;52.254;7.988;2022-10-31T05:13:28;10.00;99.90
47532;DHT22;33273;52.254;7.988;2022-10-31T05:16:14;9.90;99.90
47532;DHT22;33273;52.254;7.988;2022-10-31T05:19:09;9.90;99.90
47532;DHT22;33273;52.254;7.988;2022-10-31T05:22:04;9.80;99.90
47532;DHT22;33273;52.254;7.988;2022-10-31T05:24:32;9.90;99.90
47532;DHT22;33273;52.254;7.988;2022-10-31T05:26:58;9.80;99.90
47532;DHT22;33273;52.254;7.988;2022-10-31T05:29:25;9.90;99.90
47532;DHT22;33273;52.254;7.988;2022-10-31T05:31:51;9.80;99.90
47532;DHT22;33273;52.254;7.988;2022-10-31T05:34:39;9.80;99.90
47532;DHT22;33273;52.254;7.988;2022-10-31T05:37:24;9.80;99.90
47532;DHT22;33273;52.254;7.988;2022-10-31T05:39:50;9.90;99.90
47532;DHT22;33273;52.254;7.988;2022-10-31T05:42:17;9.80;99.90
47532;DHT22;33273;52.254;7.988;2022-10-31T05:44:42;9.80;99.90
47532;DHT22;33273;52.254;7.988;2022-10-31T05:47:17;9.80;99.90
47532;DHT22;33273;52.254;7.988;2022-10-31T05:49:54;9.80;99.90
47532;DHT22;33273;52.254;7.988;2022-10-31T05:53:00;9.70;99.90
47532;DHT22;33273;52.254;7.988;2022-10-31T05:55:33;9.70;99.90
47532;DHT22;33273;52.254;7.988;2022-10-31T05:58:07;9.70;99.90
47532;DHT22;33273;52.254;7.988;2022-10-31T06:00:35;9.60;99.90
47532;DHT22;33273;52.254;7.988;2022-10-31T06:03:07;9.60;99.90
47532;DHT22;33273;52.254;7.988;2022-10-31T06:06:06;9.50;99.90
47532;DHT22;33273;52.254;7.988;2022-10-31T06:08:36;9.50;99.90
47532;DHT22;33273;52.254;7.988;2022-10-31T06:11:06;9.40;99.90
47532;DHT22;33273;52.254;7.988;2022-10-31T06:14:04;9.40;99.90
47532;DHT22;33273;52.254;7.988;2022-10-31T06:16:41;9.40;99.90
47532;DHT22;33273;52.254;7.988;2022-10-31T06:19:26;9.40;99.90
47532;DHT22;33273;52.254;7.988;2022-10-31T06:21:52;9.40;99.90
47532;DHT22;33273;52.254;7.988;2022-10-31T06:24:18;9.50;99.90
47532;DHT22;33273;52.254;7.988;2022-10-31T06:26:53;9.50;99.90
47532;DHT22;33273;52.254;7.988;2022-10-31T06:29:20;9.40;99.90
47532;DHT22;33273;52.254;7.988;2022-10-31T06:32:11;9.40;99.90
47532;DHT22;33273;52.254;7.988;2022-10-31T06:34:41;9.40;99.90
47532;DHT22;33273;52.254;7.988;2022-10-31T06:37:09;9.40;99.90
47532;DHT22;33273;52.254;7.988;2022-10-31T06:39:37;9.30;99.90
47532;DHT22;33273;52.254;7.988;2022-10-31T06:42:04;9.40;99.90
47532;DHT22;33273;52.254;7.988;2022-10-31T06:44:31;9.30;99.90
47532;DHT22;33273;52.254;7.988;2022-10-31T06:46:59;9.30;99.90
47532;DHT22;33273;52.254;7.988;2022-10-31T06:49:37;9.30;99.90
47532;DHT22;33273;52.254;7.988;2022-10-31T06:52:09;9.30;99.90
47532;DHT22;33273;52.254;7.988;2022-10-31T06:54:35;9.30;99.90
47532;DHT22;33273;52.254;7.988;2022-10-31T06:57:03;9.30;99.90
47532;DHT22;33273;52.254;7.988;2022-10-31T06:59:30;9.30;99.90
47532;DHT22;33273;52.254;7.988;2022-10-31T07:02:25;9.40;99.90
47532;DHT22;33273;52.254;7.988;2022-10-31T07:04:52;9.40;99.90
47532;DHT22;33273;52.254;7.988;2022-10-31T07:07:17;9.40;99.90
47532;DHT22;33273;52.254;7.988;2022-10-31T07:09:46;9.50;99.90
47532;DHT22;33273;52.254;7.988;2022-10-31T07:12:16;9.60;99.90
47532;DHT22;33273;52.254;7.988;2022-10-31T07:14:50;9.70;99.90
47532;DHT22;33273;52.254;7.988;2022-10-31T07:17:16;9.70;99.90
47532;DHT22;33273;52.254;7.988;2022-10-31T07:19:43;9.80;99.90
47532;DHT22;33273;52.254;7.988;2022-10-31T07:22:17;9.90;99.90
47532;DHT22;33273;52.254;7.988;2022-10-31T07:24:44;9.90;99.90
47532;DHT22;33273;52.254;7.988;2022-10-31T07:27:28;10.00;99.90
47532;DHT22;33273;52.254;7.988;2022-10-31T07:29:54;10.10;99.90
47532;DHT22;33273;52.254;7.988;2022-10-31T07:32:20;10.20;99.90
47532;DHT22;33273;52.254;7.988;2022-10-31T07:34:51;10.20;99.90
47532;DHT22;33273;52.254;7.988;2022-10-31T07:37:20;10.30;99.90
47532;DHT22;33273;52.254;7.988;2022-10-31T07:39:47;10.40;99.90
47532;DHT22;33273;52.254;7.988;2022-10-31T07:42:13;10.50;99.90
47532;DHT22;33273;52.254;7.988;2022-10-31T07:44:43;10.60;99.90
47532;DHT22;33273;52.254;7.988;2022-10-31T07:47:27;10.60;99.90
47532;DHT22;33273;52.254;7.988;2022-10-31T07:50:14;10.70;99.90
47532;DHT22;33273;52.254;7.988;2022-10-31T07:53:10;10.80;99.90
47532;DHT22;33273;52.254;7.988;2022-10-31T07:55:50;10.90;99.90
47532;DHT22;33273;52.254;7.988;2022-10-31T07:58:18;11.00;99.90
47532;DHT22;33273;52.254;7.988;2022-10-31T08:00:46;11.10;99.90
47532;DHT22;33273;52.254;7.988;2022-10-31T08:03:18;11.10;99.90
47532;DHT22;33273;52.254;7.988;2022-10-31T08:05:56;11.20;99.90
47532;DHT22;33273;52.254;7.988;2022-10-31T08:08:45;11.30;99.90
47532;DHT22;33273;52.254;7.988;2022-10-31T08:11:11;11.40;99.90
47532;DHT22;33273;52.254;7.988;2022-10-31T08:13:38;11.50;99.90
47532;DHT22;33273;52.254;7.988;2022-10-31T08:16:04;11.60;99.90
47532;DHT22;33273;52.254;7.988;2022-10-31T08:18:36;11.60;99.90
47532;DHT22;33273;52.254;7.988;2022-10-31T08:21:04;11.70;99.90
47532;DHT22;33273;52.254;7.988;2022-10-31T08:23:30;11.80;99.90
47532;DHT22;33273;52.254;7.988;2022-10-31T08:25:57;11.90;99.90
47532;DHT22;33273;52.254;7.988;2022-10-31T08:28:23;11.80;99.90
47532;DHT22;33273;52.254;7.988;2022-10-31T08:30:50;11.90;99.90
47532;DHT22;33273;52.254;7.988;2022-10-31T08:33:35;11.80;99.90
47532;DHT22;33273;52.254;7.988;2022-10-31T08:36:21;12.00;99.90
47532;DHT22;33273;52.254;7.988;2022-10-31T08:38:50;12.00;99.90
47532;DHT22;33273;52.254;7.988;2022-10-31T08:41:16;12.00;99.90
47532;DHT22;33273;52.254;7.988;2022-10-31T08:43:42;12.10;99.90
47532;DHT22;33273;52.254;7.988;2022-10-31T08:46:08;12.10;99.90
47532;DHT22;33273;52.254;7.988;2022-10-31T08:48:34;12.20;99.90
47532;DHT22;33273;52.254;7.988;2022-10-31T08:51:02;12.20;99.90
47532;DHT22;33273;52.254;7.988;2022-10-31T08:53:29;12.40;99.90
47532;DHT22;33273;52.254;7.988;2022-10-31T08:56:14;12.50;99.90
47532;DHT22;33273;52.254;7.988;2022-10-31T08:58:40;12.60;99.90
47532;DHT22;33273;52.254;7.988;2022-10-31T09:01:08;12.60;99.90
47532;DHT22;33273;52.254;7.988;2022-10-31T09:03:35;12.70;99.90
47532;DHT22;33273;52.254;7.988;2022-10-31T09:06:02;12.90;99.90
47532;DHT22;33273;52.254;7.988;2022-10-31T09:08:30;13.00;99.90
47532;DHT22;33273;52.254;7.988;2022-10-31T09:10:57;13.10;99.90
47532;DHT22;33273;52.254;7.988;2022-10-31T09:13:43;13.10;99.90
47532;DHT22;33273;52.254;7.988;2022-10-31T09:16:27;13.20;99.90
47532;DHT22;33273;52.254;7.988;2022-10-31T09:18:54;13.30;99.90
47532;DHT22;33273;52.254;7.988;2022-10-31T09:21:20;13.30;99.90
47532;DHT22;33273;52.254;7.988;2022-10-31T09:23:46;13.40;99.90
47532;DHT22;33273;52.254;7.988;2022-10-31T09:26:18;13.50;99.90
47532;DHT22;33273;52.254;7.988;2022-10-31T09:29:23;13.60;99.90
47532;DHT22;33273;52.254;7.988;2022-10-31T09:31:56;13.80;99.90
47532;DHT22;33273;52.254;7.988;2022-10-31T09:34:29;13.90;99.90
47532;DHT22;33273;52.254;7.988;2022-10-31T09:37:04;14.00;99.90
47532;DHT22;33273;52.254;7.988;2022-10-31T09:39:30;14.10;99.90
47532;DHT22;33273;52.254;7.988;2022-10-31T09:53:39;14.80;99.90
47532;DHT22;33273;52.254;7.988;2022-10-31T09:56:15;14.90;99.90
47532;DHT22;33273;52.254;7.988;2022-10-31T09:58:52;15.10;99.90
47532;DHT22;33273;52.254;7.988;2022-10-31T10:10:18;15.60;98.20
47532;DHT22;33273;52.254;7.988;2022-10-31T10:13:44;15.70;98.60
47532;DHT22;33273;52.254;7.988;2022-10-31T10:24:25;16.30;95.00
47532;DHT22;33273;52.254;7.988;2022-10-31T10:27:25;16.40;90.40
47532;DHT22;33273;52.254;7.988;2022-10-31T10:30:02;16.50;88.90
47532;DHT22;33273;52.254;7.988;2022-10-31T10:32:31;16.60;88.40
47532;DHT22;33273;52.254;7.988;2022-10-31T10:37:46;16.80;85.80
47532;DHT22;33273;52.254;7.988;2022-10-31T10:40:23;16.90;79.80
47532;DHT22;33273;52.254;7.988;2022-10-31T10:43:20;16.90;80.10
47532;DHT22;33273;52.254;7.988;2022-10-31T10:46:08;16.90;78.40
47532;DHT22;33273;52.254;7.988;2022-10-31T10:55:08;17.10;79.70
47532;DHT22;33273;52.254;7.988;2022-10-31T10:57:51;17.10;77.20
47532;DHT22;33273;52.254;7.988;2022-10-31T11:00:34;17.20;79.20
47532;DHT22;33273;52.254;7.988;2022-10-31T11:03:02;17.20;78.80
47532;DHT22;33273;52.254;7.988;2022-10-31T11:08:03;17.40;74.20
47532;DHT22;33273;52.254;7.988;2022-10-31T11:10:29;17.40;72.90
47532;DHT22;33273;52.254;7.988;2022-10-31T11:13:03;17.40;72.50
47532;DHT22;33273;52.254;7.988;2022-10-31T11:15:35;17.40;74.70
47532;DHT22;33273;52.254;7.988;2022-10-31T11:18:02;17.50;72.20
47532;DHT22;33273;52.254;7.988;2022-10-31T11:20:34;17.40;70.90
47532;DHT22;33273;52.254;7.988;2022-10-31T11:23:04;17.50;69.60
47532;DHT22;33273;52.254;7.988;2022-10-31T11:25:30;17.50;71.80
47532;DHT22;33273;52.254;7.988;2022-10-31T11:30:26;17.50;69.30
47532;DHT22;33273;52.254;7.988;2022-10-31T11:32:52;17.50;69.70
47532;DHT22;33273;52.254;7.988;2022-10-31T11:35:20;17.40;70.20
47532;DHT22;33273;52.254;7.988;2022-10-31T11:37:48;17.40;70.80
47532;DHT22;33273;52.254;7.988;2022-10-31T11:40:25;17.40;69.90
47532;DHT22;33273;52.254;7.988;2022-10-31T11:42:55;17.40;68.30
47532;DHT22;33273;52.254;7.988;2022-10-31T11:45:34;17.40;67.50
47532;DHT22;33273;52.254;7.988;2022-10-31T11:48:12;17.40;68.00
47532;DHT22;33273;52.254;7.988;2022-10-31T11:50:40;17.40;67.30
47532;DHT22;33273;52.254;7.988;2022-10-31T11:53:33;17.30;68.60
47532;DHT22;33273;52.254;7.988;2022-10-31T11:56:15;17.30;68.50
47532;DHT22;33273;52.254;7.988;2022-10-31T11:58:43;17.30;67.00
47532;DHT22;33273;52.254;7.988;2022-10-31T12:01:27;17.30;68.00
47532;DHT22;33273;52.254;7.988;2022-10-31T12:04:04;17.40;68.60
47532;DHT22;33273;52.254;7.988;2022-10-31T12:06:37;17.40;68.90
47532;DHT22;33273;52.254;7.988;2022-10-31T12:09:24;17.50;67.10
47532;DHT22;33273;52.254;7.988;2022-10-31T12:17:26;17.70;70.60
47532;DHT22;33273;52.254;7.988;2022-10-31T12:33:24;17.50;72.70
47532;DHT22;33273;52.254;7.988;2022-10-31T12:36:10;17.40;73.10
47532;DHT22;33273;52.254;7.988;2022-10-31T12:41:24;17.40;73.20
47532;DHT22;33273;52.254;7.988;2022-10-31T12:43:57;17.40;73.20
47532;DHT22;33273;52.254;7.988;2022-10-31T12:52:29;17.30;73.50
47532;DHT22;33273;52.254;7.988;2022-10-31T12:55:10;17.20;73.60
47532;DHT22;33273;52.254;7.988;2022-10-31T12:57:44;17.20;74.40
47532;DHT22;33273;52.254;7.988;2022-10-31T13:00:16;17.20;74.50
47532;DHT22;33273;52.254;7.988;2022-10-31T13:03:17;17.10;73.70
47532;DHT22;33273;52.254;7.988;2022-10-31T13:05:48;17.10;74.60
47532;DHT22;33273;52.254;7.988;2022-10-31T13:08:22;17.00;73.80
47532;DHT22;33273;52.254;7.988;2022-10-31T13:16:39;17.10;73.30
47532;DHT22;33273;52.254;7.988;2022-10-31T13:19:37;17.10;72.00
47532;DHT22;33273;52.254;7.988;2022-10-31T13:22:17;17.00;72.20
47532;DHT22;33273;52.254;7.988;2022-10-31T13:25:19;17.10;73.30
47532;DHT22;33273;52.254;7.988;2022-10-31T13:30:37;16.90;73.00
47532;DHT22;33273;52.254;7.988;2022-10-31T13:33:16;16.90;73.80
47532;DHT22;33273;52.254;7.988;2022-10-31T13:43:52;16.90;75.90
47532;DHT22;33273;52.254;7.988;2022-10-31T13:46:40;16.80;75.90
47532;DHT22;33273;52.254;7.988;2022-10-31T13:51:47;16.70;76.50
47532;DHT22;33273;52.254;7.988;2022-10-31T13:54:30;16.70;76.60
47532;DHT22;33273;52.254;7.988;2022-10-31T13:56:57;16.70;77.30
47532;DHT22;33273;52.254;7.988;2022-10-31T13:59:25;16.70;78.00
47532;DHT22;33273;52.254;7.988;2022-10-31T14:04:28;16.70;78.50
47532;DHT22;33273;52.254;7.988;2022-10-31T14:07:07;16.70;78.70
47532;DHT22;33273;52.254;7.988;2022-10-31T14:12:41;16.60;78.50
47532;DHT22;33273;52.254;7.988;2022-10-31T14:17:48;16.60;78.50
47532;DHT22;33273;52.254;7.988;2022-10-31T14:22:41;16.60;79.50
47532;DHT22;33273;52.254;7.988;2022-10-31T14:25:36;16.60;80.00
47532;DHT22;33273;52.254;7.988;2022-10-31T14:28:30;16.60;79.80
47532;DHT22;33273;52.254;7.988;2022-10-31T14:31:01;16.50;80.50
47532;DHT22;33273;52.254;7.988;2022-10-31T14:33:29;16.50;80.60
47532;DHT22;33273;52.254;7.988;2022-10-31T14:36:11;16.60;80.40
47532;DHT22;33273;52.254;7.988;2022-10-31T14:39:21;16.60;80.60
47532;DHT22;33273;52.254;7.988;2022-10-31T14:45:14;16.60;80.70
47532;DHT22;33273;52.254;7.988;2022-10-31T14:48:03;16.50;80.90
47532;DHT22;33273;52.254;7.988;2022-10-31T14:50:50;16.60;81.00
47532;DHT22;33273;52.254;7.988;2022-10-31T14:55:55;16.60;81.20
47532;DHT22;33273;52.254;7.988;2022-10-31T14:58:42;16.50;81.40
47532;DHT22;33273;52.254;7.988;2022-10-31T15:03:48;16.50;81.70
47532;DHT22;33273;52.254;7.988;2022-10-31T15:06:16;16.50;81.60
47532;DHT22;33273;52.254;7.988;2022-10-31T15:08:48;16.50;81.50
47532;DHT22;33273;52.254;7.988;2022-10-31T15:11:18;16.50;81.50
47532;DHT22;33273;52.254;7.988;2022-10-31T15:13:52;16.50;81.70
47532;DHT22;33273;52.254;7.988;2022-10-31T15:16:34;16.50;81.70
47532;DHT22;33273;52.254;7.988;2022-10-31T15:19:13;16.50;82.00
47532;DHT22;33273;52.254;7.988;2022-10-31T15:21:44;16.40;81.90
47532;DHT22;33273;52.254;7.988;2022-10-31T15:24:14;16.40;82.00
47532;DHT22;33273;52.254;7.988;2022-10-31T15:26:46;16.40;82.20
47532;DHT22;33273;52.254;7.988;2022-10-31T15:29:15;16.40;82.60
47532;DHT22;33273;52.254;7.988;2022-10-31T15:32:26;16.40;83.00
47532;DHT22;33273;52.254;7.988;2022-10-31T15:34:53;16.30;83.50
47532;DHT22;33273;52.254;7.988;2022-10-31T15:37:22;16.30;83.70
47532;DHT22;33273;52.254;7.988;2022-10-31T15:39:50;16.30;84.00
47532;DHT22;33273;52.254;7.988;2022-10-31T15:42:27;16.30;84.40
47532;DHT22;33273;52.254;7.988;2022-10-31T15:45:12;16.20;84.70
47532;DHT22;33273;52.254;7.988;2022-10-31T15:47:55;16.20;85.20
47532;DHT22;33273;52.254;7.988;2022-10-31T15:50:38;16.20;85.50
47532;DHT22;33273;52.254;7.988;2022-10-31T15:53:20;16.20;85.80
47532;DHT22;33273;52.254;7.988;2022-10-31T15:55:55;16.10;86.00
47532;DHT22;33273;52.254;7.988;2022-10-31T15:58:22;16.10;86.20
47532;DHT22;33273;52.254;7.988;2022-10-31T16:01:03;16.10;86.20
47532;DHT22;33273;52.254;7.988;2022-10-31T16:03:31;16.10;86.20
47532;DHT22;33273;52.254;7.988;2022-10-31T16:06:03;16.00;86.20
47532;DHT22;33273;52.254;7.988;2022-10-31T16:08:36;16.00;86.70
47532;DHT22;33273;52.254;7.988;2022-10-31T16:16:18;15.90;88.50
47532;DHT22;33273;52.254;7.988;2022-10-31T16:18:46;15.90;88.20
47532;DHT22;33273;52.254;7.988;2022-10-31T16:21:13;15.80;88.20
47532;DHT22;33273;52.254;7.988;2022-10-31T16:23:45;15.70;88.70
47532;DHT22;33273;52.254;7.988;2022-10-31T16:26:17;15.70;89.10
47532;DHT22;33273;52.254;7.988;2022-10-31T16:28:54;15.60;89.20
47532;DHT22;33273;52.254;7.988;2022-10-31T16:31:35;15.60;89.70
47532;DHT22;33273;52.254;7.988;2022-10-31T16:34:03;15.50;90.20
47532;DHT22;33273;52.254;7.988;2022-10-31T16:36:31;15.50;90.40
47532;DHT22;33273;52.254;7.988;2022-10-31T16:38:58;15.50;91.30
47532;DHT22;33273;52.254;7.988;2022-10-31T16:41:25;15.50;93.10
47532;DHT22;33273;52.254;7.988;2022-10-31T16:43:51;15.50;93.00
47532;DHT22;33273;52.254;7.988;2022-10-31T16:46:26;15.50;91.90
47532;DHT22;33273;52.254;7.988;2022-10-31T16:48:54;15.50;91.50
47532;DHT22;33273;52.254;7.988;2022-10-31T16:51:21;15.40;92.10
47532;DHT22;33273;52.254;7.988;2022-10-31T16:53:46;15.40;91.90
47532;DHT22;33273;52.254;7.988;2022-10-31T16:56:18;15.40;92.10
47532;DHT22;33273;52.254;7.988;2022-10-31T16:58:46;15.30;92.20
47532;DHT22;33273;52.254;7.988;2022-10-31T17:01:15;15.30;92.10
47532;DHT22;33273;52.254;7.988;2022-10-31T17:03:41;15.30;92.20
47532;DHT22;33273;52.254;7.988;2022-10-31T17:06:17;15.30;92.20
47532;DHT22;33273;52.254;7.988;2022-10-31T17:08:43;15.30;92.40
47532;DHT22;33273;52.254;7.988;2022-10-31T17:11:18;15.30;92.60
47532;DHT22;33273;52.254;7.988;2022-10-31T17:13:44;15.20;92.80
47532;DHT22;33273;52.254;7.988;2022-10-31T17:16:12;15.20;93.10
47532;DHT22;33273;52.254;7.988;2022-10-31T17:18:39;15.20;93.60
47532;DHT22;33273;52.254;7.988;2022-10-31T17:21:05;15.20;93.70
47532;DHT22;33273;52.254;7.988;2022-10-31T17:23:31;15.10;93.90
47532;DHT22;33273;52.254;7.988;2022-10-31T17:25:57;15.10;94.10
47532;DHT22;33273;52.254;7.988;2022-10-31T17:28:25;15.10;94.30
47532;DHT22;33273;52.254;7.988;2022-10-31T17:30:53;15.00;94.30
47532;DHT22;33273;52.254;7.988;2022-10-31T17:33:20;15.00;94.40
47532;DHT22;33273;52.254;7.988;2022-10-31T17:35:46;15.00;94.70
47532;DHT22;33273;52.254;7.988;2022-10-31T17:38:12;15.00;94.70
47532;DHT22;33273;52.254;7.988;2022-10-31T17:40:39;14.90;94.70
47532;DHT22;33273;52.254;7.988;2022-10-31T17:43:08;15.00;95.00
47532;DHT22;33273;52.254;7.988;2022-10-31T17:45:36;15.00;94.80
47532;DHT22;33273;52.254;7.988;2022-10-31T17:48:02;14.90;94.80
47532;DHT22;33273;52.254;7.988;2022-10-31T17:50:28;14.90;94.90
47532;DHT22;33273;52.254;7.988;2022-10-31T17:52:54;14.90;94.90
47532;DHT22;33273;52.254;7.988;2022-10-31T17:55:22;14.90;95.20
47532;DHT22;33273;52.254;7.988;2022-10-31T17:57:48;14.90;95.30
47532;DHT22;33273;52.254;7.988;2022-10-31T18:00:16;14.80;95.20
47532;DHT22;33273;52.254;7.988;2022-10-31T18:02:45;14.80;95.20
47532;DHT22;33273;52.254;7.988;2022-10-31T18:05:12;14.80;95.20
47532;DHT22;33273;52.254;7.988;2022-10-31T18:07:41;14.80;95.10
47532;DHT22;33273;52.254;7.988;2022-10-31T18:10:08;14.80;95.10
47532;DHT22;33273;52.254;7.988;2022-10-31T18:12:37;14.70;95.00
47532;DHT22;33273;52.254;7.988;2022-10-31T18:15:05;14.70;95.50
47532;DHT22;33273;52.254;7.988;2022-10-31T18:17:32;14.70;95.30
47532;DHT22;33273;52.254;7.988;2022-10-31T18:20:03;14.70;95.30
47532;DHT22;33273;52.254;7.988;2022-10-31T18:22:29;14.70;95.90
47532;DHT22;33273;52.254;7.988;2022-10-31T18:24:55;14.70;94.90
47532;DHT22;33273;52.254;7.988;2022-10-31T18:27:23;14.70;95.00
47532;DHT22;33273;52.254;7.988;2022-10-31T18:29:51;14.70;94.90
47532;DHT22;33273;52.254;7.988;2022-10-31T18:32:18;14.60;94.80